createdAt,value
2022-09-25T00:00:25.461Z,0.00
2022-09-25T00:05:32.028Z,0.00
2022-09-25T00:10:20.804Z,0.00
2022-09-25T00:15:26.914Z,0.00
2022-09-25T00:20:33.348Z,0.00
2022-09-25T00:25:21.922Z,0.00
2022-09-25T00:30:28.090Z,0.00
2022-09-25T00:35:17.136Z,0.00
2022-09-25T00:40:23.181Z,0.00
2022-09-25T00:45:29.306Z,0.00
2022-09-25T00:50:18.084Z,0.00
2022-09-25T00:55:24.170Z,0.00
2022-09-25T01:00:30.323Z,0.00
2022-09-25T01:05:19.726Z,0.00
2022-09-25T01:10:25.979Z,0.00
2022-09-25T01:15:31.942Z,0.00
2022-09-25T01:20:21.052Z,0.00
2022-09-25T01:25:26.991Z,0.00
2022-09-25T01:30:33.126Z,0.00
2022-09-25T01:35:22.137Z,0.00
2022-09-25T01:40:28.144Z,0.00
2022-09-25T01:45:16.819Z,0.00
2022-09-25T01:50:22.829Z,0.00
2022-09-25T01:55:28.900Z,0.00
2022-09-25T02:00:18.188Z,0.00
2022-09-25T02:05:23.579Z,0.00
2022-09-25T02:10:29.712Z,0.00
2022-09-25T02:15:18.551Z,0.00
2022-09-25T02:20:24.710Z,0.00
2022-09-25T02:25:30.728Z,0.00
2022-09-25T02:30:20.141Z,0.00
2022-09-25T02:35:25.895Z,0.00
2022-09-25T02:40:32.003Z,0.00
2022-09-25T02:45:20.460Z,0.00
2022-09-25T02:50:26.775Z,0.00
2022-09-25T02:55:32.730Z,0.00
2022-09-25T03:00:21.686Z,0.00
2022-09-25T03:05:27.757Z,0.00
2022-09-25T03:10:16.719Z,0.00
2022-09-25T03:15:23.002Z,0.00
2022-09-25T03:20:28.869Z,0.00
2022-09-25T03:25:18.074Z,0.00
2022-09-25T03:30:24.047Z,0.00
2022-09-25T03:35:30.068Z,0.00
2022-09-25T03:40:19.109Z,0.00
2022-09-25T03:45:24.513Z,0.00
2022-09-25T03:50:30.574Z,0.00
2022-09-25T03:55:19.462Z,0.00
2022-09-25T04:00:25.601Z,0.00
2022-09-25T04:05:31.598Z,0.00
2022-09-25T04:10:20.532Z,0.00
2022-09-25T04:15:26.728Z,0.00
2022-09-25T04:20:32.651Z,0.00
2022-09-25T04:25:24.427Z,0.00
2022-09-25T04:30:27.853Z,0.00
2022-09-25T04:35:16.873Z,0.00
2022-09-25T04:40:23.061Z,0.00
2022-09-25T04:45:28.255Z,0.00
2022-09-25T04:50:17.279Z,0.00
2022-09-25T04:55:23.585Z,0.00
2022-09-25T05:00:29.434Z,0.00
2022-09-25T05:05:18.308Z,0.31
2022-09-25T05:10:24.414Z,1.15
2022-09-25T05:15:30.579Z,1.75
2022-09-25T05:20:19.642Z,3.51
2022-09-25T05:25:25.630Z,5.43
2022-09-25T05:30:31.669Z,7.74
2022-09-25T05:35:20.600Z,9.75
2022-09-25T05:40:26.919Z,11.25
2022-09-25T05:45:32.188Z,15.56
2022-09-25T05:50:21.990Z,18.60
2022-09-25T05:55:27.431Z,19.57
2022-09-25T06:00:16.291Z,22.12
2022-09-25T06:05:22.352Z,20.44
2022-09-25T06:10:28.402Z,22.66
2022-09-25T06:15:17.408Z,25.18
2022-09-25T06:20:23.559Z,29.21
2022-09-25T06:25:29.402Z,44.09
2022-09-25T06:30:18.587Z,73.03
2022-09-25T06:35:24.583Z,65.41
2022-09-25T06:40:30.755Z,45.79
2022-09-25T06:45:19.932Z,48.63
2022-09-25T06:50:26.175Z,55.02
2022-09-25T06:55:32.273Z,63.54
2022-09-25T07:00:21.145Z,76.39
2022-09-25T07:05:27.041Z,70.36
2022-09-25T07:10:16.088Z,64.05
2022-09-25T07:15:22.234Z,56.33
2022-09-25T07:20:28.395Z,57.31
2022-09-25T07:25:17.294Z,56.48
2022-09-25T07:30:23.487Z,74.64
2022-09-25T07:35:29.474Z,86.70
2022-09-25T07:40:18.580Z,95.26
2022-09-25T07:45:24.685Z,130.57
2022-09-25T07:50:30.740Z,137.29
2022-09-25T07:55:19.861Z,117.45
2022-09-25T08:00:25.825Z,88.89
2022-09-25T08:05:31.564Z,96.88
2022-09-25T08:10:20.601Z,60.28
2022-09-25T08:15:26.778Z,64.10
2022-09-25T08:20:32.969Z,84.25
2022-09-25T08:25:21.865Z,113.21
2022-09-25T08:30:28.121Z,143.59
2022-09-25T08:35:16.881Z,157.47
2022-09-25T08:40:23.194Z,153.61
2022-09-25T08:45:28.543Z,147.18
2022-09-25T08:50:19.174Z,153.07
2022-09-25T08:55:23.608Z,118.44
2022-09-25T09:00:30.572Z,102.40
2022-09-25T09:05:18.835Z,111.61
2022-09-25T09:10:24.810Z,168.87
2022-09-25T09:15:31.398Z,196.95
2022-09-25T09:20:19.992Z,230.24
2022-09-25T09:25:26.309Z,200.54
2022-09-25T09:30:32.206Z,171.99
2022-09-25T09:35:21.175Z,153.04
2022-09-25T09:40:27.584Z,146.66
2022-09-25T09:45:32.340Z,135.44
2022-09-25T09:50:21.421Z,130.36
2022-09-25T09:55:27.455Z,176.29
2022-09-25T10:00:16.520Z,226.50
2022-09-25T10:05:22.365Z,276.96
2022-09-25T10:10:28.626Z,362.23
2022-09-25T10:15:17.505Z,467.94
2022-09-25T10:20:23.672Z,335.32
2022-09-25T10:25:30.513Z,358.18
2022-09-25T10:30:18.921Z,433.18
2022-09-25T10:35:24.705Z,269.07
2022-09-25T10:40:31.231Z,213.77
2022-09-25T10:45:19.103Z,182.17
2022-09-25T10:50:25.363Z,201.63
2022-09-25T10:55:31.215Z,242.56
2022-09-25T11:00:21.155Z,237.57
2022-09-25T11:10:32.313Z,161.81
2022-09-25T11:15:21.749Z,177.68
2022-09-25T11:20:27.467Z,160.76
2022-09-25T11:25:16.925Z,161.61
2022-09-25T11:30:23.140Z,154.04
2022-09-25T11:35:28.812Z,156.78
2022-09-25T11:40:18.015Z,178.31
2022-09-25T11:45:23.652Z,197.12
2022-09-25T11:50:29.241Z,200.09
2022-09-25T11:55:18.272Z,226.60
2022-09-25T12:00:24.345Z,235.24
2022-09-25T12:05:30.774Z,186.80
2022-09-25T12:10:19.812Z,173.03
2022-09-25T12:15:26.121Z,212.00
2022-09-25T12:20:32.007Z,223.51
2022-09-25T12:25:21.138Z,213.78
2022-09-25T12:30:27.163Z,192.94
2022-09-25T12:35:32.974Z,165.50
2022-09-25T12:40:22.350Z,140.33
2022-09-25T12:45:27.951Z,129.46
2022-09-25T12:50:17.409Z,135.98
2022-09-25T12:55:23.097Z,128.26
2022-09-25T13:00:29.312Z,123.46
2022-09-25T13:05:21.509Z,135.90
2022-09-25T13:10:23.906Z,158.71
2022-09-25T13:15:29.989Z,184.82
2022-09-25T13:20:18.783Z,243.89
2022-09-25T13:25:24.768Z,427.27
2022-09-25T13:30:31.328Z,487.33
2022-09-25T13:35:20.178Z,277.63
2022-09-25T13:40:26.123Z,239.19
2022-09-25T13:45:31.887Z,170.22
2022-09-25T13:50:21.322Z,145.44
2022-09-25T13:55:27.045Z,166.90
2022-09-25T14:00:33.141Z,174.12
2022-09-25T14:05:21.612Z,168.94
2022-09-25T14:10:27.600Z,165.85
2022-09-25T14:15:16.642Z,131.39
2022-09-25T14:20:23.076Z,70.41
2022-09-25T14:25:28.885Z,36.14
2022-09-25T14:30:18.044Z,19.63
2022-09-25T14:35:24.246Z,20.92
2022-09-25T14:40:30.028Z,19.40
2022-09-25T14:45:18.887Z,13.92
2022-09-25T14:50:24.888Z,10.67
2022-09-25T14:55:30.862Z,12.78
2022-09-25T15:00:19.994Z,14.03
2022-09-25T15:05:25.525Z,15.22
2022-09-25T15:10:31.382Z,17.85
2022-09-25T15:15:20.573Z,21.88
2022-09-25T15:20:26.600Z,26.11
2022-09-25T15:25:32.755Z,33.78
2022-09-25T15:30:21.587Z,40.11
2022-09-25T15:35:27.739Z,45.36
2022-09-25T15:40:16.927Z,56.50
2022-09-25T15:45:22.742Z,63.54
2022-09-25T15:50:28.771Z,71.44
2022-09-25T15:55:18.696Z,71.26
2022-09-25T16:00:24.016Z,56.58
2022-09-25T16:05:29.676Z,53.76
2022-09-25T16:10:18.376Z,47.61
2022-09-25T16:15:24.571Z,39.97
2022-09-25T16:20:30.796Z,32.30
2022-09-25T16:25:20.007Z,27.31
2022-09-25T16:30:25.682Z,25.49
2022-09-25T16:35:50.607Z,22.62
2022-09-25T16:40:21.117Z,19.07
2022-09-25T16:45:26.491Z,15.92
2022-09-25T16:50:16.134Z,12.26
2022-09-25T16:55:21.442Z,7.77
2022-09-25T17:00:27.539Z,4.96
2022-09-25T17:05:15.886Z,2.65
2022-09-25T17:10:22.014Z,0.88
2022-09-25T17:15:28.293Z,0.08
2022-09-25T17:20:17.543Z,0.00
2022-09-25T17:25:23.345Z,0.00
2022-09-25T17:30:29.331Z,0.00
2022-09-25T17:35:18.284Z,0.00
2022-09-25T17:40:24.659Z,0.00
2022-09-25T17:45:30.182Z,0.00
2022-09-25T17:50:19.426Z,0.00
2022-09-25T17:55:25.266Z,0.00
2022-09-25T18:00:31.346Z,0.00
2022-09-25T18:05:20.711Z,0.00
2022-09-25T18:10:26.953Z,0.00
2022-09-25T18:15:33.061Z,0.00
2022-09-25T18:20:21.927Z,0.00
2022-09-25T18:25:28.172Z,0.00
2022-09-25T18:30:17.236Z,0.00
2022-09-25T18:35:23.218Z,0.00
2022-09-25T18:40:29.247Z,0.00
2022-09-25T18:45:18.034Z,0.00
2022-09-25T18:50:24.033Z,0.00
2022-09-25T18:55:30.078Z,0.00
2022-09-25T19:00:19.230Z,0.00
2022-09-25T19:05:26.861Z,0.00
2022-09-25T19:10:31.971Z,0.00
2022-09-25T19:15:20.935Z,0.00
2022-09-25T19:20:27.423Z,0.00
2022-09-25T19:25:33.093Z,0.00
2022-09-25T19:30:22.074Z,0.00
2022-09-25T19:35:28.152Z,0.00
2022-09-25T19:40:17.374Z,0.00
2022-09-25T19:45:22.967Z,0.00
2022-09-25T19:50:28.887Z,0.00
2022-09-25T19:55:17.887Z,0.00
2022-09-25T20:00:24.242Z,0.00
2022-09-25T20:05:29.620Z,0.00
2022-09-25T20:10:18.409Z,0.00
2022-09-25T20:15:24.688Z,0.00
2022-09-25T20:20:30.585Z,0.00
2022-09-25T20:25:19.616Z,0.00
2022-09-25T20:30:25.646Z,0.00
2022-09-25T20:35:31.779Z,0.00
2022-09-25T20:40:20.852Z,0.00
2022-09-25T20:45:26.799Z,0.00
2022-09-25T20:50:32.723Z,0.00
2022-09-25T20:55:21.679Z,0.00
2022-09-25T21:00:27.904Z,0.00
2022-09-25T21:05:16.329Z,0.00
2022-09-25T21:10:22.217Z,0.00
2022-09-25T21:15:28.487Z,0.00
2022-09-25T21:20:17.423Z,0.00
2022-09-25T21:25:23.432Z,0.00
2022-09-25T21:30:29.604Z,0.00
2022-09-25T21:35:18.474Z,0.00
2022-09-25T21:40:24.656Z,0.00
2022-09-25T21:45:30.561Z,0.00
2022-09-25T21:50:19.486Z,0.00
2022-09-25T21:55:25.698Z,0.00
2022-09-25T22:00:32.042Z,0.00
2022-09-25T22:05:20.267Z,0.00
2022-09-25T22:10:26.446Z,0.00
2022-09-25T22:15:33.593Z,0.00
2022-09-25T22:20:21.453Z,0.00
2022-09-25T22:25:27.527Z,0.00
2022-09-25T22:30:16.467Z,0.00
2022-09-25T22:35:22.620Z,0.00
2022-09-25T22:40:28.825Z,0.00
2022-09-25T22:45:17.307Z,0.00
2022-09-25T22:50:23.540Z,0.00
2022-09-25T22:55:29.439Z,0.00
2022-09-25T23:00:18.630Z,0.00
2022-09-25T23:05:24.702Z,0.00
2022-09-25T23:10:48.716Z,0.00
2022-09-25T23:15:19.779Z,0.00
2022-09-25T23:20:25.871Z,0.00
2022-09-25T23:25:31.933Z,0.00
2022-09-25T23:30:21.113Z,0.00
2022-09-25T23:35:26.989Z,0.00
2022-09-25T23:40:33.110Z,0.00
2022-09-25T23:45:23.018Z,0.00
2022-09-25T23:50:28.162Z,0.00
2022-09-25T23:55:17.087Z,0.00
